Nearby METAR Reports

 

KIOB - Mount Sterling, Kentucky, USA
Distance from station: NNW 14mi, 23km
Updated: Sat, 31-Oct-2020 6:35pm EDT
Clear
Clear
 Wind from S
Wind: S 5 mph , 7 km/h
Temperature: 54°F , 12°C
Dew Point: 37°F , 3°C
Humidity: 54%
Barometer: 30.23 inHg , 1023.7 hPa
Clouds: Clear
Visibility: 10 miles , 16 km
2020/10/31 22:35 KIOB 312235Z AUTO 18004KT 10SM CLR 12/03 A3023 RMK AO2
KSYM - Morehead, Kentucky, USA
Distance from station: NE 31mi, 49km
Updated: Sat, 31-Oct-2020 6:35pm EDT
Clear
Clear
 Wind from calm
Wind: Calm
Temperature: 55°F , 13°C
Dew Point: 36°F , 2°C
Humidity: 47%
Barometer: 30.23 inHg , 1023.7 hPa
Clouds: Clear
Visibility: 10 miles , 16 km
2020/10/31 22:35 KSYM 312235Z AUTO 00000KT 10SM CLR 13/02 A3023 RMK AO2
 
KJKL - Noctor/Jackson, Kentucky, USA
Distance from station: ESE 36mi, 58km
Updated: Sat, 31-Oct-2020 5:53pm EDT
Clear
Clear
 Wind from calm
Wind: Calm
Temperature: 59°F , 15°C
Dew Point: 37°F , 3°C
Humidity: 45%
Barometer: 30.23 inHg , 1023.7 hPa
Clouds: Clear
Visibility: 10 miles , 16 km
2020/10/31 21:53 KJKL 312153Z AUTO 00000KT 10SM CLR 15/03 A3023 RMK AO2 SLP237 T01500028 $
KLEX - Lexington, Kentucky, USA
Distance from station: WNW 40mi, 65km
Updated: Sat, 31-Oct-2020 5:54pm EDT
Clear
Clear
 Wind from S
Wind: S 7 mph , 11 km/h
Temperature: 57°F , 14°C
Dew Point: 39°F , 4°C
Humidity: 51%
Barometer: 30.22 inHg , 1023.4 hPa
Clouds: Clear
Visibility: 10 miles , 16 km
2020/10/31 21:54 KLEX 312154Z 17006KT 10SM CLR 14/04 A3022 RMK AO2 SLP234 T01390039
 
KFGX - Flemingsburg, Kentucky, USA
Distance from station: N 49mi, 79km
Updated: Sat, 31-Oct-2020 6:35pm EDT
Clear
Clear
 Wind from S
Wind: S 3 mph , 6 km/h
Temperature: 52°F , 11°C
Dew Point: 37°F , 3°C
Humidity: 58%
Barometer: 30.23 inHg , 1023.7 hPa
Clouds: Clear
Visibility: 10 miles , 16 km
2020/10/31 22:35 KFGX 312235Z AUTO 19003KT 10SM CLR 11/03 A3023 RMK AO2 T01110026